Breckenridge, CO (80424)

2:19 PM MDT on July 07, 2015 (GMT -0600)
Downtown | | Change Station
CLOSE
Current Station
Personal Weather Station
Location: Breckenridge, CO
Elevation: 9590 ft
Nearby Weather Stations

Elev 9590 ft 39.48 °N, 106.05 °W | Updated 11 minutes ago

Mostly Cloudy
Mostly Cloudy
56.2 °F
Feels Like 56.2 °F
N
1.0
Wind Variable Wind from NNE
Gusts 5.0 mph

Today
High -- | Low -- °F
--% Chance of Precip.
Yesterday
High -- | Low -- °F
Precip. -- in
5:43 AM 8:34 PM
Waning Gibbous, 61% visible
Pressure 29.93 in
Visibility 10.0 miles
Clouds Mostly Cloudy 7000 ft
Mostly Cloudy 8500 ft
Dew Point 46 °F
Humidity 69%
Rainfall 0.13 in
Snow Depth Not available.
UV 7 out of 12
Pollen 4.80 out of 12
Air Quality Not available.
Flu Activity Not available.
METAR KLXV 071953Z AUTO 03006KT 10SM BKN070 BKN085 12/08 A3037 RMK AO2 LTG DSNT E-SW RAB04E19 SLP135 P0000 T01170078

More Conditions Fewer Conditions

Pressure 29.93 in
Visibility 10.0 miles
Clouds Mostly Cloudy 7000 ft
Mostly Cloudy 8500 ft
Dew Point 46 °F
Humidity 69%
Rainfall 0.13 in
Snow Depth Not available.
UV 7 out of 12
Pollen 4.80 out of 12
Air Quality Not available.
Flu Activity Not available.
METAR KLXV 071953Z AUTO 03006KT 10SM BKN070 BKN085 12/08 A3037 RMK AO2 LTG DSNT E-SW RAB04E19 SLP135 P0000 T01170078

More Conditions Fewer Conditions

Nowcast | as of 1:15 PM MDT on July 7, 2015

Scattered rain showers and a few thunderstorms will continue moving over the Front Range foothills...mountains and high Parks through this afternoon. Showers will produce up to a half inch of rain in 30 to 45 minutes along with some pea-sized hail and gusty winds up to 35 mph.

×

10-Day Weather Forecast

×

Almanac

Astronomy

Jul. 07, 2015 Rise Set
Actual Time
Civil Twilight
Nautical Twilight
Astronomical Twilight
Moon
Length of Visible Light
Length of Day
Tomorrow will be .
, % of the Moon is Illuminated

Today's Extremes

State Highs State Lows

Community

WunderPhotos

Upload Photos

1,835,884 photos uploaded!

WunderBlogs® & News

Nearby

Air Quality

  Air Quality AQ Index Pollutant
Not available.

Snow Depth

Station Depth Elevation

Earthquake Activity

City Distance Mag. Time & Date
Minimum magnitude displayed is 2.5.

Coastal Water Temperatures

Place Temperature

Stations

Nearby Weather Stations

Station Location Temp. Windchill Dew Point Humidity Wind Precip. Elev Updated Type